Time;durP1;ratioP1;P1;durP2;ratioP2;P2;SDS_P1;SDS_P2;PMS_P1;PMS_P2;Temp;Humidity;BMP_temperature;BMP_pressure;BME280_temperature;BME280_humidity;BME280_pressure;Samples;Min_cycle;Max_cycle;Signal;HPM_P1;HPM_P2
2023/09/08 00:00:43;;;;;;;9.70;6.13;;;;;;;;;;4997755;28;97802;-82
2023/09/08 00:03:10;;;;;;;11.95;6.80;;;;;;;;;;5006958;28;99132;-82
2023/09/08 00:05:36;;;;;;;11.02;6.18;;;;;;;;;;5002154;28;99599;-83
2023/09/08 00:08:03;;;;;;;10.52;5.90;;;;;;;;;;4991110;28;99539;-83
2023/09/08 00:10:30;;;;;;;10.27;5.93;;;;;;;;;;4991667;28;100814;-83
2023/09/08 00:12:56;;;;;;;11.15;6.65;;;;;;;;;;5021968;28;99243;-83
2023/09/08 00:15:23;;;;;;;11.60;6.70;;;;;;;;;;5002714;28;100453;-83
2023/09/08 00:17:50;;;;;;;11.30;6.40;;;;;;;;;;5008081;28;99272;-83
2023/09/08 00:20:16;;;;;;;10.45;6.20;;;;;;;;;;5006940;28;99861;-83
2023/09/08 00:22:43;;;;;;;9.15;5.50;;;;;;;;;;5007281;28;98980;-84
2023/09/08 00:25:09;;;;;;;10.68;6.13;;;;;;;;;;4996823;28;98375;-83
2023/09/08 00:27:36;;;;;;;11.00;6.20;;;;;;;;;;5007756;28;98531;-83
2023/09/08 00:30:03;;;;;;;11.98;6.45;;;;;;;;;;5006060;28;99949;-84
2023/09/08 00:32:30;;;;;;;11.82;6.15;;;;;;;;;;5009741;28;101126;-83
2023/09/08 00:34:59;;;;;;;9.90;6.35;;;;;;;;;;4991440;28;100895;-83
2023/09/08 00:37:25;;;;;;;10.10;6.47;;;;;;;;;;4970576;28;100517;-82
2023/09/08 00:39:52;;;;;;;9.93;6.13;;;;;;;;;;5006360;28;98851;-83
2023/09/08 00:42:18;;;;;;;10.55;6.40;;;;;;;;;;5006441;28;98810;-83
2023/09/08 00:44:45;;;;;;;10.77;6.00;;;;;;;;;;5006940;28;99943;-83
2023/09/08 00:47:11;;;;;;;9.30;5.53;;;;;;;;;;5006714;28;98995;-81
2023/09/08 00:49:38;;;;;;;10.52;6.60;;;;;;;;;;4997288;28;99479;-82
2023/09/08 00:52:05;;;;;;;9.40;5.97;;;;;;;;;;5006019;28;99339;-82
2023/09/08 00:54:31;;;;;;;8.93;5.80;;;;;;;;;;4990770;28;99218;-82
2023/09/08 00:57:01;;;;;;;9.25;5.60;;;;;;;;;;5005500;28;101307;-82
2023/09/08 00:59:27;;;;;;;9.40;5.85;;;;;;;;;;5004059;28;98597;-82
2023/09/08 01:01:54;;;;;;;8.40;5.00;;;;;;;;;;5005819;28;99415;-82
2023/09/08 01:04:20;;;;;;;9.40;5.88;;;;;;;;;;4997962;28;100358;-83
2023/09/08 01:06:48;;;;;;;9.43;5.43;;;;;;;;;;4992502;28;98682;-83
2023/09/08 01:09:14;;;;;;;;;;;;;;;;;;4995061;28;101529;-83
2023/09/08 01:11:41;;;;;;;9.68;5.28;;;;;;;;;;4996575;28;101614;-82
2023/09/08 01:14:08;;;;;;;9.38;5.38;;;;;;;;;;4995973;28;97932;-83
2023/09/08 01:16:35;;;;;;;10.05;5.20;;;;;;;;;;5009617;28;99152;-82
2023/09/08 01:19:03;;;;;;;9.80;5.57;;;;;;;;;;4977696;28;99021;-81
2023/09/08 01:21:42;;;;;;;12.20;5.85;;;;;;;;;;4992308;28;101775;-83
2023/09/08 01:24:28;;;;;;;9.55;5.57;;;;;;;;;;5002290;28;100655;-82
2023/09/08 01:26:54;;;;;;;9.32;5.70;;;;;;;;;;5009522;28;98980;-82
2023/09/08 01:29:24;;;;;;;10.27;6.15;;;;;;;;;;5010619;28;98564;-82
2023/09/08 01:31:51;;;;;;;10.10;5.97;;;;;;;;;;5003873;28;99681;-82
2023/09/08 01:34:18;;;;;;;10.35;5.97;;;;;;;;;;5005765;28;100279;-82
2023/09/08 01:36:44;;;;;;;;;;;;;;;;;;5005923;28;99234;-82
2023/09/08 01:39:11;;;;;;;10.18;5.90;;;;;;;;;;4993631;28;101583;-82
2023/09/08 01:41:37;;;;;;;9.80;5.68;;;;;;;;;;5005597;28;98666;-82
2023/09/08 01:44:07;;;;;;;10.57;6.20;;;;;;;;;;4998804;28;98505;-83
2023/09/08 01:46:34;;;;;;;9.32;5.68;;;;;;;;;;5005192;28;99235;-84
2023/09/08 01:49:01;;;;;;;9.05;5.60;;;;;;;;;;4989386;28;102212;-83
2023/09/08 01:51:29;;;;;;;12.65;5.88;;;;;;;;;;4985249;28;100895;-84
2023/09/08 01:53:56;;;;;;;8.85;5.55;;;;;;;;;;5017468;28;98500;-84
2023/09/08 01:56:22;;;;;;;11.13;5.95;;;;;;;;;;4999218;28;99230;-84
2023/09/08 01:58:49;;;;;;;9.93;6.00;;;;;;;;;;4996449;28;102329;-84
2023/09/08 02:01:16;;;;;;;9.35;5.57;;;;;;;;;;4995394;28;98911;-83
2023/09/08 02:03:42;;;;;;;9.32;5.80;;;;;;;;;;5007309;28;98453;-83
2023/09/08 02:06:09;;;;;;;9.40;6.13;;;;;;;;;;5005326;28;99493;-83
2023/09/08 02:08:35;;;;;;;10.48;5.85;;;;;;;;;;5005239;28;98684;-84
2023/09/08 02:11:05;;;;;;;9.88;5.78;;;;;;;;;;4994694;28;100235;-84
2023/09/08 02:13:32;;;;;;;10.23;6.07;;;;;;;;;;4999329;28;98551;-84
2023/09/08 02:15:58;;;;;;;10.95;6.55;;;;;;;;;;5004496;28;98826;-84
2023/09/08 02:18:25;;;;;;;11.88;7.20;;;;;;;;;;4996585;28;101656;-84
2023/09/08 02:20:52;;;;;;;9.73;6.30;;;;;;;;;;5008333;28;98601;-84
2023/09/08 02:23:18;;;;;;;9.88;6.45;;;;;;;;;;5004371;28;100169;-84
2023/09/08 02:25:45;;;;;;;9.55;5.85;;;;;;;;;;5004567;28;98844;-83
2023/09/08 02:28:11;;;;;;;10.73;6.30;;;;;;;;;;4999721;28;99841;-82
2023/09/08 02:30:38;;;;;;;12.60;6.85;;;;;;;;;;5002408;28;99671;-82
2023/09/08 02:33:05;;;;;;;11.02;7.00;;;;;;;;;;5005255;28;98937;-82
2023/09/08 02:35:35;;;;;;;11.00;5.93;;;;;;;;;;4991227;28;101108;-82
2023/09/08 02:38:02;;;;;;;10.13;5.70;;;;;;;;;;4982863;28;100342;-81
2023/09/08 02:40:28;;;;;;;9.93;6.00;;;;;;;;;;4996962;28;98670;-81
2023/09/08 02:42:55;;;;;;;9.70;5.88;;;;;;;;;;5007276;28;98811;-81
2023/09/08 02:45:21;;;;;;;9.82;5.93;;;;;;;;;;4986614;28;98585;-82
2023/09/08 02:47:49;;;;;;;10.50;6.10;;;;;;;;;;4972882;28;101506;-82
2023/09/08 02:50:16;;;;;;;12.60;6.13;;;;;;;;;;5004935;28;99589;-82
2023/09/08 02:52:42;;;;;;;10.50;5.95;;;;;;;;;;5005249;28;97864;-82
2023/09/08 02:55:09;;;;;;;10.90;6.10;;;;;;;;;;5005018;28;98443;-83
2023/09/08 02:57:35;;;;;;;13.00;6.97;;;;;;;;;;5002730;28;100404;-83
2023/09/08 03:00:03;;;;;;;9.40;5.88;;;;;;;;;;4993054;28;99334;-82
2023/09/08 03:02:30;;;;;;;9.73;5.90;;;;;;;;;;4998437;28;101431;-82
2023/09/08 03:04:57;;;;;;;10.93;6.75;;;;;;;;;;4999548;28;102434;-82
2023/09/08 03:07:23;;;;;;;11.45;6.60;;;;;;;;;;4999879;28;99896;-82
2023/09/08 03:09:50;;;;;;;9.98;5.80;;;;;;;;;;5001350;28;99450;-82
2023/09/08 03:12:16;;;;;;;9.23;5.43;;;;;;;;;;5003406;28;98531;-82
2023/09/08 03:14:43;;;;;;;10.88;5.78;;;;;;;;;;5004590;28;98856;-82
2023/09/08 03:17:10;;;;;;;9.80;5.70;;;;;;;;;;4971099;28;100927;-82
2023/09/08 03:19:36;;;;;;;10.63;5.35;;;;;;;;;;5008335;28;98535;-82
2023/09/08 03:22:05;;;;;;;10.10;5.90;;;;;;;;;;4990824;28;101673;-80
2023/09/08 03:24:32;;;;;;;10.00;5.70;;;;;;;;;;4991762;28;99855;-81
2023/09/08 03:26:59;;;;;;;;;;;;;;;;;;5011057;28;98579;-81
2023/09/08 03:29:27;;;;;;;9.75;5.65;;;;;;;;;;4998626;28;102104;-80
2023/09/08 03:31:53;;;;;;;11.43;6.35;;;;;;;;;;5004564;28;98496;-81
2023/09/08 03:34:20;;;;;;;10.20;5.93;;;;;;;;;;4992516;28;101736;-81
2023/09/08 03:36:49;;;;;;;11.15;6.60;;;;;;;;;;4990546;28;102367;-81
2023/09/08 03:39:16;;;;;;;8.30;5.18;;;;;;;;;;4990121;28;98623;-81
2023/09/08 03:41:43;;;;;;;10.15;5.63;;;;;;;;;;4994261;28;99215;-81
2023/09/08 03:44:09;;;;;;;10.55;5.88;;;;;;;;;;4994012;28;101849;-81
2023/09/08 03:46:36;;;;;;;9.25;5.72;;;;;;;;;;5006673;28;98884;-81
2023/09/08 03:49:03;;;;;;;11.95;6.50;;;;;;;;;;5000191;28;101624;-81
2023/09/08 03:51:30;;;;;;;8.73;5.47;;;;;;;;;;5006378;28;99153;-81
2023/09/08 03:53:56;;;;;;;10.38;5.82;;;;;;;;;;5007296;28;99046;-81
2023/09/08 03:56:23;;;;;;;10.15;5.95;;;;;;;;;;4991118;28;101721;-80
2023/09/08 03:58:50;;;;;;;11.98;6.60;;;;;;;;;;4997877;28;98618;-82
2023/09/08 04:01:17;;;;;;;9.85;6.25;;;;;;;;;;4990969;28;99982;-82
2023/09/08 04:03:43;;;;;;;9.60;5.60;;;;;;;;;;4997664;28;99091;-83
2023/09/08 04:06:11;;;;;;;9.65;5.78;;;;;;;;;;4961126;28;98947;-83
2023/09/08 04:08:37;;;;;;;9.55;6.05;;;;;;;;;;4996964;28;100580;-83
2023/09/08 04:11:04;;;;;;;10.50;6.15;;;;;;;;;;4994481;28;101757;-82
2023/09/08 04:13:31;;;;;;;9.68;6.13;;;;;;;;;;5009937;28;99414;-82
2023/09/08 04:15:59;;;;;;;9.73;5.70;;;;;;;;;;4996997;28;101878;-84
2023/09/08 04:18:26;;;;;;;9.35;5.75;;;;;;;;;;4995184;28;98733;-85
2023/09/08 04:20:55;;;;;;;9.57;5.88;;;;;;;;;;4991667;28;99096;-84
2023/09/08 04:23:21;;;;;;;9.80;5.88;;;;;;;;;;5006447;28;99197;-84
2023/09/08 04:25:48;;;;;;;10.23;5.80;;;;;;;;;;4987140;28;100118;-81
2023/09/08 04:28:14;;;;;;;9.90;5.47;;;;;;;;;;5000276;28;100509;-82
2023/09/08 04:30:41;;;;;;;9.32;5.57;;;;;;;;;;4998191;28;98330;-82
2023/09/08 04:33:08;;;;;;;9.90;5.68;;;;;;;;;;4970614;28;100174;-82
2023/09/08 04:35:35;;;;;;;11.60;6.43;;;;;;;;;;5006004;28;99235;-82
2023/09/08 04:38:02;;;;;;;11.48;6.22;;;;;;;;;;5006399;28;99510;-81
2023/09/08 04:40:30;;;;;;;10.07;5.70;;;;;;;;;;5006860;28;99830;-82
2023/09/08 04:42:57;;;;;;;11.13;6.10;;;;;;;;;;4988655;28;102027;-81
2023/09/08 04:45:23;;;;;;;9.77;5.72;;;;;;;;;;5006853;28;98833;-81
2023/09/08 04:47:50;;;;;;;9.70;5.60;;;;;;;;;;5006320;28;100103;-82
2023/09/08 04:50:18;;;;;;;10.50;5.97;;;;;;;;;;4997976;28;101944;-82
2023/09/08 04:52:45;;;;;;;10.73;6.10;;;;;;;;;;4993564;28;98760;-82
2023/09/08 04:55:12;;;;;;;10.32;5.93;;;;;;;;;;4995039;28;101077;-82
2023/09/08 04:57:39;;;;;;;10.77;6.05;;;;;;;;;;5003008;28;98483;-82
2023/09/08 05:00:06;;;;;;;10.63;6.20;;;;;;;;;;5001548;28;102071;-82
2023/09/08 05:02:33;;;;;;;10.48;6.55;;;;;;;;;;4978878;28;101912;-82
2023/09/08 05:05:01;;;;;;;10.65;6.43;;;;;;;;;;4999939;28;98626;-82
2023/09/08 05:07:28;;;;;;;10.18;5.90;;;;;;;;;;4993244;28;100671;-81
2023/09/08 05:09:55;;;;;;;9.23;5.78;;;;;;;;;;5002321;28;101531;-82
2023/09/08 05:12:26;;;;;;;9.27;5.78;;;;;;;;;;4997055;28;98536;-81
2023/09/08 05:14:56;;;;;;;10.68;5.68;;;;;;;;;;4999733;28;101578;-81
2023/09/08 05:17:24;;;;;;;13.90;6.10;;;;;;;;;;4996053;28;98593;-81
2023/09/08 05:19:50;;;;;;;10.63;6.32;;;;;;;;;;5007964;28;99388;-82
2023/09/08 05:22:17;;;;;;;10.68;6.07;;;;;;;;;;5004749;28;100395;-82
2023/09/08 05:24:44;;;;;;;10.80;6.00;;;;;;;;;;4994337;28;98657;-82
2023/09/08 05:27:11;;;;;;;10.77;5.72;;;;;;;;;;4990239;28;99368;-82
2023/09/08 05:29:38;;;;;;;9.93;5.82;;;;;;;;;;4994253;28;101191;-82
2023/09/08 05:32:04;;;;;;;9.15;5.72;;;;;;;;;;5005257;28;98584;-81
2023/09/08 05:34:31;;;;;;;10.20;5.82;;;;;;;;;;4989586;28;101641;-82
2023/09/08 05:36:58;;;;;;;9.02;5.60;;;;;;;;;;4994722;28;102102;-82
2023/09/08 05:39:24;;;;;;;10.50;5.85;;;;;;;;;;5007040;28;98923;-83
2023/09/08 05:41:52;;;;;;;10.48;5.72;;;;;;;;;;4993171;28;100956;-84
2023/09/08 05:44:18;;;;;;;9.75;5.53;;;;;;;;;;4984768;28;98441;-83
2023/09/08 05:46:45;;;;;;;10.38;5.35;;;;;;;;;;5011648;28;99575;-82
2023/09/08 05:49:13;;;;;;;12.00;5.80;;;;;;;;;;4991142;28;101578;-83
2023/09/08 05:51:41;;;;;;;9.63;5.47;;;;;;;;;;4994158;28;99889;-82
2023/09/08 05:54:07;;;;;;;9.68;5.22;;;;;;;;;;4987764;28;102340;-82
2023/09/08 05:56:34;;;;;;;9.80;5.40;;;;;;;;;;5002312;28;101338;-82
2023/09/08 05:59:01;;;;;;;9.68;5.38;;;;;;;;;;4997541;28;98979;-83
2023/09/08 06:01:29;;;;;;;9.30;5.47;;;;;;;;;;5000456;28;102014;-82
2023/09/08 06:03:56;;;;;;;10.07;5.53;;;;;;;;;;4995846;28;98603;-82
2023/09/08 06:06:26;;;;;;;9.85;5.72;;;;;;;;;;4989448;28;101300;-81
2023/09/08 06:08:52;;;;;;;10.35;5.60;;;;;;;;;;4997242;28;101614;-82
2023/09/08 06:11:19;;;;;;;9.45;5.40;;;;;;;;;;4988072;28;98888;-82
2023/09/08 06:13:46;;;;;;;13.45;5.80;;;;;;;;;;4973133;28;101891;-83
2023/09/08 06:16:12;;;;;;;11.93;5.97;;;;;;;;;;4995806;28;104652;-81
2023/09/08 06:18:43;;;;;;;14.75;7.35;;;;;;;;;;5006750;28;98766;-83
2023/09/08 06:21:13;;;;;;;12.35;6.80;;;;;;;;;;4985417;28;101127;-85
2023/09/08 06:23:40;;;;;;;11.55;6.60;;;;;;;;;;4974212;28;99727;-83
2023/09/08 06:26:07;;;;;;;11.18;6.55;;;;;;;;;;5008272;28;101614;-83
2023/09/08 06:28:36;;;;;;;14.07;7.35;;;;;;;;;;4997647;28;99157;-82
2023/09/08 06:31:04;;;;;;;12.90;7.30;;;;;;;;;;5017574;28;98448;-83
2023/09/08 06:33:31;;;;;;;;;;;;;;;;;;4995085;28;100552;-83
2023/09/08 06:35:57;;;;;;;12.90;7.50;;;;;;;;;;5015095;28;100937;-81
2023/09/08 06:38:25;;;;;;;13.18;6.85;;;;;;;;;;4982073;28;98787;-82
2023/09/08 06:40:53;;;;;;;13.27;7.68;;;;;;;;;;4992710;28;100875;-82
2023/09/08 06:43:20;;;;;;;11.80;6.85;;;;;;;;;;5014055;28;99164;-82
2023/09/08 06:45:57;;;;;;;14.40;7.10;;;;;;;;;;5002584;28;99067;-82
2023/09/08 06:48:24;;;;;;;13.32;6.80;;;;;;;;;;4992017;28;98458;-82
2023/09/08 06:50:56;;;;;;;12.88;7.22;;;;;;;;;;5007311;28;98923;-82
2023/09/08 06:53:24;;;;;;;12.40;6.85;;;;;;;;;;5009290;28;101353;-83
2023/09/08 06:55:51;;;;;;;11.18;6.47;;;;;;;;;;5024397;28;101152;-83
2023/09/08 06:58:18;;;;;;;12.93;6.47;;;;;;;;;;5033817;28;97719;-81
2023/09/08 07:00:44;;;;;;;12.23;6.82;;;;;;;;;;5020596;28;98798;-83
2023/09/08 07:03:11;;;;;;;13.27;7.05;;;;;;;;;;5012224;28;99138;-84
2023/09/08 07:05:39;;;;;;;11.95;6.35;;;;;;;;;;5002707;28;100710;-83
2023/09/08 07:08:06;;;;;;;11.38;6.63;;;;;;;;;;4997095;28;101918;-83
2023/09/08 07:10:33;;;;;;;12.25;7.32;;;;;;;;;;5013144;28;98488;-84
2023/09/08 07:13:00;;;;;;;12.07;6.57;;;;;;;;;;5021204;28;97946;-84
2023/09/08 07:15:27;;;;;;;14.35;7.43;;;;;;;;;;5015774;28;100653;-83
2023/09/08 07:17:54;;;;;;;13.10;7.10;;;;;;;;;;5002014;28;98754;-82
2023/09/08 07:20:20;;;;;;;13.43;7.85;;;;;;;;;;4992281;28;100374;-82
2023/09/08 07:22:47;;;;;;;13.00;7.57;;;;;;;;;;4986745;28;101512;-83
2023/09/08 07:25:14;;;;;;;13.00;7.30;;;;;;;;;;4990906;28;98639;-82
2023/09/08 07:27:41;;;;;;;11.35;7.20;;;;;;;;;;4972154;28;101396;-83
2023/09/08 07:30:08;;;;;;;17.30;9.13;;;;;;;;;;4988019;28;99503;-82
2023/09/08 07:32:36;;;;;;;11.60;7.10;;;;;;;;;;4982633;28;99501;-82
2023/09/08 07:35:03;;;;;;;12.77;8.00;;;;;;;;;;4950958;28;101946;-82
2023/09/08 07:37:29;;;;;;;15.20;8.30;;;;;;;;;;4975449;28;98825;-82
2023/09/08 07:39:56;;;;;;;12.45;8.40;;;;;;;;;;4979550;28;99985;-79
2023/09/08 07:42:25;;;;;;;14.85;9.25;;;;;;;;;;4981289;28;101589;-82
2023/09/08 07:44:52;;;;;;;15.45;10.18;;;;;;;;;;4982075;28;99230;-81
2023/09/08 07:47:19;;;;;;;15.75;9.77;;;;;;;;;;4981130;28;101773;-81
2023/09/08 07:49:49;;;;;;;13.73;8.27;;;;;;;;;;4987228;28;98747;-81
2023/09/08 07:52:15;;;;;;;14.85;7.88;;;;;;;;;;4986849;28;100790;-81
2023/09/08 07:54:42;;;;;;;15.93;8.68;;;;;;;;;;4973679;28;99618;-81
2023/09/08 07:57:09;;;;;;;12.93;8.77;;;;;;;;;;4986485;28;98883;-80
2023/09/08 07:59:35;;;;;;;14.85;8.05;;;;;;;;;;4971181;28;100614;-82
2023/09/08 08:02:03;;;;;;;10.65;6.53;;;;;;;;;;4985417;28;100130;-83
2023/09/08 08:04:30;;;;;;;14.40;8.48;;;;;;;;;;4988670;28;98513;-81
2023/09/08 08:06:57;;;;;;;13.35;8.10;;;;;;;;;;4987241;28;102095;-82
2023/09/08 08:09:24;;;;;;;10.82;6.47;;;;;;;;;;4982035;28;101969;-81
2023/09/08 08:11:50;;;;;;;12.98;6.93;;;;;;;;;;4973355;28;99408;-83
2023/09/08 08:14:17;;;;;;;12.88;7.57;;;;;;;;;;4983375;28;99481;-83
2023/09/08 08:16:43;;;;;;;14.20;8.32;;;;;;;;;;4974582;28;98705;-82
2023/09/08 08:19:10;;;;;;;14.65;8.52;;;;;;;;;;4978910;28;102451;-81
2023/09/08 08:21:37;;;;;;;14.50;8.45;;;;;;;;;;4980869;28;99077;-82
2023/09/08 08:24:04;;;;;;;15.38;9.65;;;;;;;;;;5005711;28;99678;-82
2023/09/08 08:26:32;;;;;;;14.90;8.77;;;;;;;;;;4990550;28;101966;-81
2023/09/08 08:28:59;;;;;;;17.50;8.98;;;;;;;;;;5006452;28;99227;-81
2023/09/08 08:31:26;;;;;;;16.88;10.23;;;;;;;;;;5011130;28;99416;-81
2023/09/08 08:33:53;;;;;;;14.80;9.27;;;;;;;;;;5006431;28;99456;-81
2023/09/08 08:36:20;;;;;;;12.40;7.70;;;;;;;;;;4989944;28;97856;-82
2023/09/08 08:38:47;;;;;;;14.48;8.73;;;;;;;;;;4991963;28;98656;-81
2023/09/08 08:41:13;;;;;;;13.38;9.20;;;;;;;;;;5008689;28;99442;-83
2023/09/08 08:43:42;;;;;;;12.07;7.22;;;;;;;;;;5007310;28;99560;-82
2023/09/08 08:46:09;;;;;;;13.70;8.43;;;;;;;;;;4983237;28;99903;-80
2023/09/08 08:48:36;;;;;;;11.18;6.80;;;;;;;;;;5007199;28;100346;-81
2023/09/08 08:51:04;;;;;;;12.60;8.93;;;;;;;;;;4992425;28;99077;-81
2023/09/08 08:53:31;;;;;;;11.15;6.85;;;;;;;;;;4989823;28;100265;-78
2023/09/08 08:55:58;;;;;;;13.90;8.35;;;;;;;;;;4989317;28;98738;-79
2023/09/08 08:58:26;;;;;;;13.15;8.02;;;;;;;;;;5008587;28;100082;-79
2023/09/08 09:00:55;;;;;;;15.60;9.70;;;;;;;;;;5007325;28;98364;-78
2023/09/08 09:03:24;;;;;;;12.63;7.88;;;;;;;;;;5007919;28;99199;-81
2023/09/08 09:05:51;;;;;;;13.68;7.93;;;;;;;;;;4989666;28;99377;-81
2023/09/08 09:08:18;;;;;;;12.13;7.82;;;;;;;;;;5006013;28;100096;-81
2023/09/08 09:10:45;;;;;;;12.93;7.97;;;;;;;;;;4988716;28;99037;-80
2023/09/08 09:13:11;;;;;;;15.40;8.43;;;;;;;;;;4992206;28;98982;-80
2023/09/08 09:15:38;;;;;;;13.68;8.13;;;;;;;;;;5005189;28;98501;-82
2023/09/08 09:18:05;;;;;;;13.77;9.20;;;;;;;;;;5006130;28;99438;-79
2023/09/08 09:20:33;;;;;;;13.32;7.53;;;;;;;;;;4998854;28;99787;-79
2023/09/08 09:22:59;;;;;;;13.15;8.80;;;;;;;;;;4971059;28;99735;-80
2023/09/08 09:25:30;;;;;;;13.52;7.50;;;;;;;;;;4988364;28;101841;-79
2023/09/08 09:27:58;;;;;;;13.80;7.95;;;;;;;;;;5005636;28;99271;-81
2023/09/08 09:30:25;;;;;;;11.93;8.00;;;;;;;;;;5005160;28;98849;-78
2023/09/08 09:33:02;;;;;;;12.00;6.57;;;;;;;;;;4976343;28;99669;-81
2023/09/08 09:35:42;;;;;;;13.30;8.35;;;;;;;;;;5008995;28;102330;-79
2023/09/08 09:38:09;;;;;;;16.20;8.63;;;;;;;;;;5005836;28;100443;-78
2023/09/08 09:40:36;;;;;;;12.25;7.47;;;;;;;;;;5005334;28;100399;-80
2023/09/08 09:43:04;;;;;;;13.65;8.13;;;;;;;;;;5005850;28;98602;-79
2023/09/08 09:45:32;;;;;;;12.27;7.60;;;;;;;;;;4982810;28;99466;-80
2023/09/08 09:47:59;;;;;;;10.45;6.25;;;;;;;;;;4996145;28;102142;-83
2023/09/08 09:50:26;;;;;;;;;;;;;;;;;;5000538;28;98039;-79
2023/09/08 09:52:55;;;;;;;12.73;7.60;;;;;;;;;;5016237;28;117862;-80
2023/09/08 09:55:21;;;;;;;12.70;7.78;;;;;;;;;;5004352;28;99137;-77
2023/09/08 09:57:48;;;;;;;9.48;5.82;;;;;;;;;;5004852;28;99620;-76
2023/09/08 10:00:16;;;;;;;12.10;7.32;;;;;;;;;;5003859;28;101530;-79
2023/09/08 10:02:43;;;;;;;12.95;7.75;;;;;;;;;;4990504;28;99441;-77
2023/09/08 10:05:11;;;;;;;11.88;6.97;;;;;;;;;;5001032;28;100348;-77
2023/09/08 10:07:39;;;;;;;9.63;5.97;;;;;;;;;;4990939;28;98511;-78
2023/09/08 10:10:06;;;;;;;10.32;6.05;;;;;;;;;;5003536;28;98491;-79
2023/09/08 10:12:35;;;;;;;10.27;5.78;;;;;;;;;;4994535;28;100175;-79
2023/09/08 10:15:03;;;;;;;11.80;6.13;;;;;;;;;;5007108;28;98235;-81
2023/09/08 10:17:30;;;;;;;10.27;5.43;;;;;;;;;;4998100;28;98892;-79
2023/09/08 10:20:00;;;;;;;10.40;5.65;;;;;;;;;;5008714;28;99653;-79
2023/09/08 10:22:30;;;;;;;10.02;5.53;;;;;;;;;;5003144;28;99563;-79
2023/09/08 10:24:59;;;;;;;9.65;5.07;;;;;;;;;;5005414;28;99807;-81
2023/09/08 10:27:26;;;;;;;9.85;5.10;;;;;;;;;;5007499;28;99293;-82
2023/09/08 10:29:53;;;;;;;9.10;5.38;;;;;;;;;;5001284;28;98528;-82
2023/09/08 10:32:21;;;;;;;9.35;5.10;;;;;;;;;;5005327;28;100561;-81
2023/09/08 10:34:48;;;;;;;12.07;5.03;;;;;;;;;;4977645;28;102482;-82
2023/09/08 10:37:19;;;;;;;10.35;5.20;;;;;;;;;;5009581;28;98580;-82
2023/09/08 10:39:45;;;;;;;9.07;4.88;;;;;;;;;;5012584;28;100038;-82
2023/09/08 10:42:21;;;;;;;8.10;4.93;;;;;;;;;;5009138;28;99074;-82
2023/09/08 10:44:48;;;;;;;9.25;5.35;;;;;;;;;;5009113;28;100259;-82
2023/09/08 10:47:17;;;;;;;9.57;5.18;;;;;;;;;;4985641;28;100296;-78
2023/09/08 10:49:45;;;;;;;10.27;4.95;;;;;;;;;;5000440;28;98587;-78
2023/09/08 10:52:12;;;;;;;9.25;5.13;;;;;;;;;;4990344;28;99211;-77
2023/09/08 10:54:49;;;;;;;7.78;4.75;;;;;;;;;;5008059;28;99218;-78
2023/09/08 10:57:17;;;;;;;8.85;4.80;;;;;;;;;;5008649;28;99168;-78
2023/09/08 10:59:53;;;;;;;9.48;4.97;;;;;;;;;;5007885;28;98500;-78
2023/09/08 11:02:38;;;;;;;7.75;4.60;;;;;;;;;;4984420;28;102243;-77
2023/09/08 11:05:06;;;;;;;8.75;5.15;;;;;;;;;;5000942;28;100271;-78
2023/09/08 11:07:33;;;;;;;9.10;4.82;;;;;;;;;;4979202;28;102374;-78
2023/09/08 11:10:00;;;;;;;;;;;;;;;;;;5008149;28;98517;-78
2023/09/08 11:12:27;;;;;;;7.70;4.97;;;;;;;;;;4984774;28;109683;-78
2023/09/08 11:14:54;;;;;;;8.48;5.03;;;;;;;;;;4995917;28;99287;-78
2023/09/08 11:17:25;;;;;;;9.55;4.97;;;;;;;;;;4989779;28;98580;-78
2023/09/08 11:19:51;;;;;;;8.68;4.85;;;;;;;;;;4989728;28;99526;-78
2023/09/08 11:22:18;;;;;;;9.43;5.22;;;;;;;;;;5007078;28;99642;-78
2023/09/08 11:24:44;;;;;;;7.97;5.03;;;;;;;;;;5011203;28;98913;-78
2023/09/08 11:27:11;;;;;;;10.52;4.95;;;;;;;;;;5008548;28;100092;-79
2023/09/08 11:29:40;;;;;;;9.93;4.68;;;;;;;;;;5008592;28;98640;-79
2023/09/08 11:32:07;;;;;;;8.23;5.00;;;;;;;;;;4987512;28;99736;-79
2023/09/08 11:34:35;;;;;;;9.05;5.03;;;;;;;;;;4988482;28;100541;-79
2023/09/08 11:37:16;;;;;;;8.60;4.97;;;;;;;;;;4988893;28;99660;-79
2023/09/08 11:39:43;;;;;;;7.70;4.57;;;;;;;;;;5008299;28;99455;-79
2023/09/08 11:42:10;;;;;;;8.23;4.88;;;;;;;;;;4990582;28;99370;-79
2023/09/08 11:44:37;;;;;;;9.27;4.90;;;;;;;;;;5008771;28;98630;-80
2023/09/08 11:47:04;;;;;;;;;;;;;;;;;;5005631;28;98764;-80
2023/09/08 11:49:34;;;;;;;9.32;5.15;;;;;;;;;;5000807;28;101749;-80
2023/09/08 11:52:02;;;;;;;8.63;5.15;;;;;;;;;;4988514;28;99227;-80
2023/09/08 11:54:29;;;;;;;8.30;4.70;;;;;;;;;;5002322;28;98710;-81
2023/09/08 11:56:56;;;;;;;7.75;4.88;;;;;;;;;;4998806;28;98716;-79
2023/09/08 11:59:22;;;;;;;;;;;;;;;;;;4999116;28;99265;-80
2023/09/08 12:01:49;;;;;;;9.38;5.00;;;;;;;;;;5007058;28;117023;-79
2023/09/08 12:04:20;;;;;;;8.48;5.00;;;;;;;;;;5006987;28;98803;-80
2023/09/08 12:06:50;;;;;;;8.73;5.30;;;;;;;;;;4989210;28;99431;-80
2023/09/08 12:09:17;;;;;;;7.88;4.88;;;;;;;;;;5010345;28;99172;-80
2023/09/08 12:11:44;;;;;;;7.88;4.97;;;;;;;;;;5007349;28;98883;-80
2023/09/08 12:14:13;;;;;;;9.23;4.80;;;;;;;;;;5006962;28;99665;-81
2023/09/08 12:16:43;;;;;;;7.53;4.72;;;;;;;;;;5006958;28;98553;-80
2023/09/08 12:19:28;;;;;;;9.05;4.82;;;;;;;;;;5007675;28;98856;-81
2023/09/08 12:21:56;;;;;;;8.68;4.60;;;;;;;;;;5006370;28;100787;-80
2023/09/08 12:24:41;;;;;;;8.85;4.90;;;;;;;;;;5014346;28;98771;-81
2023/09/08 12:27:08;;;;;;;8.65;4.95;;;;;;;;;;4998611;28;99420;-81
2023/09/08 12:29:34;;;;;;;8.52;4.47;;;;;;;;;;5007089;28;99381;-80
2023/09/08 12:32:01;;;;;;;9.10;4.72;;;;;;;;;;5005326;28;98939;-80
2023/09/08 12:34:27;;;;;;;;;;;;;;;;;;4993448;28;99273;-79
2023/09/08 12:36:57;;;;;;;8.52;4.97;;;;;;;;;;5001680;28;104034;-80
2023/09/08 12:39:24;;;;;;;8.25;5.13;;;;;;;;;;5007347;28;100452;-81
2023/09/08 12:41:50;;;;;;;8.98;5.22;;;;;;;;;;4988744;28;99227;-81
2023/09/08 12:44:20;;;;;;;8.88;5.10;;;;;;;;;;4980739;28;97944;-80
2023/09/08 12:46:47;;;;;;;8.52;5.07;;;;;;;;;;5001966;28;98879;-80
2023/09/08 12:49:13;;;;;;;8.88;5.60;;;;;;;;;;5005547;28;99484;-81
2023/09/08 12:51:41;;;;;;;10.07;5.47;;;;;;;;;;5009812;28;99940;-81
2023/09/08 12:54:08;;;;;;;8.50;4.72;;;;;;;;;;4986702;28;99965;-81
2023/09/08 12:56:34;;;;;;;8.43;5.18;;;;;;;;;;5006348;28;98490;-80
2023/09/08 12:59:01;;;;;;;9.18;5.20;;;;;;;;;;4988215;28;99297;-79
2023/09/08 13:01:28;;;;;;;8.95;5.30;;;;;;;;;;5005059;28;99279;-79
2023/09/08 13:03:55;;;;;;;9.25;5.10;;;;;;;;;;5006295;28;98593;-79
2023/09/08 13:06:22;;;;;;;;;;;;;;;;;;4999734;28;99310;-79
2023/09/08 13:08:49;;;;;;;9.52;5.20;;;;;;;;;;4995170;28;99285;-79
2023/09/08 13:11:15;;;;;;;8.07;4.80;;;;;;;;;;4988027;28;98591;-79
2023/09/08 13:13:42;;;;;;;9.63;5.18;;;;;;;;;;4989609;28;101242;-80
2023/09/08 13:16:09;;;;;;;9.70;5.60;;;;;;;;;;5006942;28;99464;-80
2023/09/08 13:18:38;;;;;;;;;;;;;;;;;;5009397;28;99376;-80
2023/09/08 13:21:05;;;;;;;9.23;5.50;;;;;;;;;;5000547;28;117739;-81
2023/09/08 13:23:31;;;;;;;9.32;5.20;;;;;;;;;;5005467;28;99001;-79
2023/09/08 13:25:58;;;;;;;8.95;4.97;;;;;;;;;;4978107;28;99158;-80
2023/09/08 13:28:25;;;;;;;10.57;5.45;;;;;;;;;;5005556;28;99395;-78
2023/09/08 13:30:51;;;;;;;;;;;;;;;;;;4992125;28;99075;-79
2023/09/08 13:33:18;;;;;;;9.32;4.85;;;;;;;;;;5000750;28;115570;-79
2023/09/08 13:35:44;;;;;;;;;;;;;;;;;;4999252;28;100164;-78
2023/09/08 13:38:11;;;;;;;8.23;5.15;;;;;;;;;;5005519;28;104419;-79
2023/09/08 13:40:38;;;;;;;8.38;4.72;;;;;;;;;;4983492;28;100382;-80
2023/09/08 13:43:04;;;;;;;;;;;;;;;;;;4994396;28;99649;-78
2023/09/08 13:45:31;;;;;;;7.95;4.40;;;;;;;;;;4981212;28;120812;-79
2023/09/08 13:47:58;;;;;;;7.95;4.50;;;;;;;;;;5003770;28;99701;-80
2023/09/08 13:50:26;;;;;;;7.15;4.05;;;;;;;;;;4991984;28;100105;-80
2023/09/08 13:52:53;;;;;;;7.85;4.65;;;;;;;;;;4999685;28;99694;-79
2023/09/08 13:55:23;;;;;;;7.55;4.80;;;;;;;;;;4994904;28;99600;-79
2023/09/08 13:58:03;;;;;;;7.50;4.40;;;;;;;;;;5005992;28;97795;-79
2023/09/08 14:00:36;;;;;;;8.30;4.75;;;;;;;;;;5003748;28;100427;-78
2023/09/08 14:03:03;;;;;;;7.10;4.60;;;;;;;;;;5004616;28;98679;-79
2023/09/08 14:05:32;;;;;;;8.70;4.65;;;;;;;;;;5008689;28;100680;-79
2023/09/08 14:08:03;;;;;;;10.02;4.68;;;;;;;;;;4986797;28;99829;-79
2023/09/08 14:10:42;;;;;;;7.97;4.63;;;;;;;;;;4989531;28;98563;-79
2023/09/08 14:13:18;;;;;;;8.02;4.60;;;;;;;;;;4989753;28;99910;-79
2023/09/08 14:15:45;;;;;;;7.32;4.65;;;;;;;;;;5007366;28;99421;-79
2023/09/08 14:18:13;;;;;;;;;;;;;;;;;;5011340;28;98562;-79
2023/09/08 14:20:42;;;;;;;8.48;4.80;;;;;;;;;;5014804;28;98548;-80
2023/09/08 14:23:09;;;;;;;8.75;4.60;;;;;;;;;;5008892;28;98175;-79
2023/09/08 14:25:36;;;;;;;8.10;4.72;;;;;;;;;;4996363;28;98911;-80
2023/09/08 14:28:03;;;;;;;8.10;4.78;;;;;;;;;;4967131;28;101714;-80
2023/09/08 14:30:33;;;;;;;7.88;4.55;;;;;;;;;;5004265;28;99494;-80
2023/09/08 14:33:00;;;;;;;8.15;4.82;;;;;;;;;;4986275;28;99787;-80
2023/09/08 14:35:26;;;;;;;9.52;4.60;;;;;;;;;;5004664;28;99411;-80
2023/09/08 14:37:53;;;;;;;;;;;;;;;;;;5005056;28;98768;-80